Point Arena, CA

6:22 PM PDT on September 20, 2014 (GMT -0700)
Sonoma County | Change Station
CLOSE
Current Station
Airport
Location: Santa Rosa,
Elevation: 125 ft
Nearby Weather Stations

Elev 125 ft 38.50 °N, 122.81 °W | Updated 29 minutes ago

Clear
Clear
69 °F
Feels Like 69 °F
N
10
Wind Variable Wind from South

Today
High -- | Low -- °F
--% Chance of Precip.
Yesterday
High -- | Low -- °F
Precip. -- in
7:00 AM 7:14 PM
Waning Crescent, 9% visible
Pressure 29.85 in
Visibility 10.0 miles
Clouds Few 1000 ft
Dew Point 58 °F
Humidity 68%
Rainfall 0.00 in
Snow Depth 0 in , 0 in , 0 in
UV 1 out of 12
Pollen 6.00 out of 12
Air Quality Not available.
Flu Activity Not available.
METAR KSTS 210053Z 17009KT 10SM FEW010 21/14 A2987 RMK AO2 SLP108 T02060144

More Conditions Fewer Conditions

Pressure 29.85 in
Visibility 10.0 miles
Clouds Few 1000 ft
Dew Point 58 °F
Humidity 68%
Rainfall 0.00 in
Snow Depth 0 in , 0 in , 0 in
UV 1 out of 12
Pollen 6.00 out of 12
Air Quality Not available.
Flu Activity Not available.
METAR KSTS 210053Z 17009KT 10SM FEW010 21/14 A2987 RMK AO2 SLP108 T02060144

More Conditions Fewer Conditions

10-Day Weather Forecast

Almanac

Astronomy

Sep. 20, 2014 Rise Set
Actual Time 7:00 AM PDT 7:14 PM PDT
Civil Twilight 6:33 AM PDT 7:41 PM PDT
Nautical Twilight 6:02 AM PDT 8:12 PM PDT
Astronomical Twilight 5:30 AM PDT 8:44 PM PDT
Moon 3:46 AM PDT (9/20) 5:20 PM PDT (9/20)
Length of Visible Light 13h 07m
Length of Day
12h 14m
Tomorrow will be 2m 30s shorter.
Waning Crescent, 9% of the Moon is Illuminated
Today
Waning Crescent
Sep 24
New
Oct 1
First Quarter
Oct 8
Full
Oct 15
Last Quarter

Today's Extremes

State Highs State Lows

Community

WunderPhotos

Upload Photos

1,755,025 photos uploaded!

WunderBlogs® & News

Nearby

Snow Depth

Station Depth Elevation
Summit Meadow 0 in 9122 ft
Leavitt Meadows 0 in 7200 ft
CSS Lab 0 in 6900 ft
Monitor Pass 0 in 8350 ft
Adin Mountain 0 in 6200 ft

Earthquake Activity

City Distance Mag. Time & Date
Livermore, California 133 miles 2.6 3:37 AM PDT
2014-09-19
The Geysers, California 51 miles 2.5 11:29 PM PDT
2014-09-17
Minimum magnitude displayed is 2.5.

Coastal Water Temperatures

Place Temperature
Point Reyes, CA 64.9 °F
Arena Cove, CA 63.0 °F
San Francisco, CA 66.0 °F
Richmond, CA 66.9 °F

Nearby Weather Stations